createdAt,value
2023-05-23T00:00:38.658Z,59.20
2023-05-23T00:03:06.553Z,59.17
2023-05-23T00:05:34.442Z,59.38
2023-05-23T00:08:02.401Z,59.32
2023-05-23T00:10:30.167Z,59.29
2023-05-23T00:12:58.169Z,59.27
2023-05-23T00:15:27.429Z,59.50
2023-05-23T00:17:55.265Z,59.40
2023-05-23T00:20:23.206Z,59.58
2023-05-23T00:22:50.993Z,59.53
2023-05-23T00:25:21.996Z,59.57
2023-05-23T00:27:49.775Z,59.89
2023-05-23T00:30:17.786Z,59.65
2023-05-23T00:32:46.968Z,59.78
2023-05-23T00:35:14.752Z,60.06
2023-05-23T00:37:43.862Z,59.95
2023-05-23T00:40:12.671Z,60.02
2023-05-23T00:42:40.789Z,59.86
2023-05-23T00:45:09.412Z,60.08
2023-05-23T00:47:37.325Z,60.07
2023-05-23T00:50:08.450Z,59.87
2023-05-23T00:52:37.114Z,59.97
2023-05-23T00:55:06.101Z,59.95
2023-05-23T00:57:34.433Z,60.07
2023-05-23T01:00:02.490Z,59.83
2023-05-23T01:02:33.614Z,59.86
2023-05-23T01:05:02.484Z,59.81
2023-05-23T01:07:31.733Z,59.84
2023-05-23T01:09:59.812Z,59.79
2023-05-23T01:12:35.447Z,59.85
2023-05-23T01:15:08.758Z,60.03
2023-05-23T01:17:56.316Z,59.87
2023-05-23T01:20:29.838Z,59.90
2023-05-23T01:23:22.393Z,59.71
2023-05-23T01:26:05.186Z,59.84
2023-05-23T01:28:38.962Z,59.88
2023-05-23T01:31:11.288Z,59.78
2023-05-23T01:33:41.087Z,59.81
2023-05-23T01:36:10.058Z,59.86
2023-05-23T01:38:37.860Z,59.75
2023-05-23T01:41:05.679Z,59.75
2023-05-23T01:43:35.238Z,59.58
2023-05-23T01:46:04.593Z,59.26
2023-05-23T01:48:33.261Z,59.36
2023-05-23T01:51:01.195Z,59.32
2023-05-23T01:53:30.289Z,59.28
2023-05-23T01:55:58.605Z,59.12
2023-05-23T01:58:26.435Z,59.20
2023-05-23T02:00:55.699Z,59.32
2023-05-23T02:03:23.767Z,59.19
2023-05-23T02:05:51.878Z,59.15
2023-05-23T02:08:19.634Z,59.46
2023-05-23T02:10:47.473Z,59.42
2023-05-23T02:13:15.238Z,59.46
2023-05-23T02:15:43.075Z,59.25
2023-05-23T02:18:13.081Z,59.47
2023-05-23T02:20:41.213Z,59.63
2023-05-23T02:23:09.123Z,59.49
2023-05-23T02:25:37.048Z,59.69
2023-05-23T02:28:04.902Z,59.79
2023-05-23T02:30:32.703Z,59.53
2023-05-23T02:33:00.489Z,59.68
2023-05-23T02:35:29.621Z,59.84
2023-05-23T02:37:57.384Z,59.98
2023-05-23T02:40:25.143Z,60.01
2023-05-23T02:42:52.900Z,60.16
2023-05-23T02:45:20.777Z,60.23
2023-05-23T02:47:48.501Z,60.32
2023-05-23T02:50:16.657Z,60.59
2023-05-23T02:52:45.816Z,60.36
2023-05-23T02:55:13.596Z,60.77
2023-05-23T02:57:41.380Z,60.79
2023-05-23T03:00:12.022Z,60.75
2023-05-23T03:02:39.938Z,60.76
2023-05-23T03:05:08.738Z,60.84
2023-05-23T03:07:36.721Z,60.70
2023-05-23T03:10:06.868Z,60.42
2023-05-23T03:12:34.667Z,60.78
2023-05-23T03:15:02.390Z,60.78
2023-05-23T03:17:30.127Z,60.80
2023-05-23T03:19:57.920Z,60.70
2023-05-23T03:22:25.650Z,60.58
2023-05-23T03:24:53.416Z,60.63
2023-05-23T03:27:22.566Z,60.45
2023-05-23T03:29:50.282Z,60.40
2023-05-23T03:32:18.044Z,60.51
2023-05-23T03:34:46.134Z,60.54
2023-05-23T03:37:13.880Z,60.29
2023-05-23T03:39:41.618Z,60.35
2023-05-23T03:42:09.403Z,60.37
2023-05-23T03:44:38.647Z,60.37
2023-05-23T03:47:07.185Z,60.27
2023-05-23T03:49:35.080Z,60.28
2023-05-23T03:52:02.808Z,60.30
2023-05-23T03:54:30.559Z,60.21
2023-05-23T03:56:58.334Z,59.99
2023-05-23T03:59:26.066Z,60.17
2023-05-23T04:01:55.379Z,60.12
2023-05-23T04:04:25.120Z,60.20
2023-05-23T04:06:53.297Z,60.15
2023-05-23T04:09:21.058Z,60.28
2023-05-23T04:11:49.209Z,60.36
2023-05-23T04:14:17.421Z,60.43
2023-05-23T04:16:45.239Z,60.33
2023-05-23T04:19:14.388Z,60.31
2023-05-23T04:21:42.208Z,60.35
2023-05-23T04:24:09.948Z,60.44
2023-05-23T04:26:37.769Z,60.42
2023-05-23T04:29:06.310Z,60.40
2023-05-23T04:31:35.256Z,60.47
2023-05-23T04:34:03.839Z,60.44
2023-05-23T04:36:33.012Z,60.67
2023-05-23T04:39:00.751Z,60.42
2023-05-23T04:41:28.523Z,60.75
2023-05-23T04:43:58.511Z,60.52
2023-05-23T04:46:26.878Z,60.77
2023-05-23T04:48:55.045Z,60.71
2023-05-23T04:51:22.912Z,60.74
2023-05-23T04:53:52.851Z,60.86
2023-05-23T04:56:22.287Z,60.78
2023-05-23T04:58:50.190Z,60.92
2023-05-23T05:01:18.003Z,61.19
2023-05-23T05:03:45.863Z,61.03
2023-05-23T05:06:14.698Z,61.03
2023-05-23T05:08:42.488Z,61.28
2023-05-23T05:11:11.933Z,61.11
2023-05-23T05:13:39.671Z,61.13
2023-05-23T05:16:07.896Z,61.27
2023-05-23T05:18:36.516Z,61.57
2023-05-23T05:21:04.571Z,61.62
2023-05-23T05:23:33.329Z,61.61
2023-05-23T05:26:01.615Z,61.69
2023-05-23T05:28:30.715Z,61.83
2023-05-23T05:30:58.998Z,61.85
2023-05-23T05:33:28.426Z,61.76
2023-05-23T05:35:56.294Z,62.22
2023-05-23T05:38:24.040Z,61.93
2023-05-23T05:40:51.777Z,61.93
2023-05-23T05:43:19.607Z,61.88
2023-05-23T05:45:48.732Z,61.71
2023-05-23T05:48:16.622Z,61.37
2023-05-23T05:50:45.524Z,61.54
2023-05-23T05:53:13.660Z,61.61
2023-05-23T05:55:41.470Z,61.55
2023-05-23T05:58:09.199Z,61.48
2023-05-23T06:00:42.301Z,61.24
2023-05-23T06:03:12.602Z,61.22
2023-05-23T06:05:40.487Z,61.36
2023-05-23T06:08:08.495Z,61.30
2023-05-23T06:10:39.545Z,61.17
2023-05-23T06:13:07.591Z,61.40
2023-05-23T06:15:35.476Z,61.28
2023-05-23T06:18:03.248Z,61.34
2023-05-23T06:20:32.372Z,61.12
2023-05-23T06:23:00.309Z,61.16
2023-05-23T06:25:28.359Z,61.07
2023-05-23T06:27:56.138Z,61.06
2023-05-23T06:30:24.368Z,60.90
2023-05-23T06:32:52.197Z,60.83
2023-05-23T06:35:19.958Z,60.73
2023-05-23T06:37:49.107Z,60.90
2023-05-23T06:40:16.958Z,60.75
2023-05-23T06:42:44.792Z,60.68
2023-05-23T06:45:15.766Z,60.71
2023-05-23T06:47:45.670Z,60.63
2023-05-23T06:50:13.622Z,60.55
2023-05-23T06:52:42.747Z,60.34
2023-05-23T06:55:14.538Z,60.18
2023-05-23T06:57:42.341Z,60.08
2023-05-23T07:00:11.538Z,59.92
2023-05-23T07:02:39.389Z,59.83
2023-05-23T07:05:07.895Z,59.88
2023-05-23T07:07:35.705Z,59.86
2023-05-23T07:10:03.611Z,59.77
2023-05-23T07:12:34.757Z,59.70
2023-05-23T07:15:02.920Z,59.76
2023-05-23T07:17:30.875Z,59.78
2023-05-23T07:19:58.678Z,59.93
2023-05-23T07:22:26.893Z,59.84
2023-05-23T07:24:54.836Z,59.79
2023-05-23T07:27:22.717Z,59.65
2023-05-23T07:29:51.919Z,59.49
2023-05-23T07:32:19.764Z,59.59
2023-05-23T07:34:47.519Z,58.80
2023-05-23T07:37:15.282Z,58.33
2023-05-23T07:39:43.037Z,58.31
2023-05-23T07:42:10.851Z,57.33
2023-05-23T07:44:38.957Z,57.63
2023-05-23T07:47:08.122Z,57.46
2023-05-23T07:49:35.946Z,57.12
2023-05-23T07:52:03.803Z,56.67
2023-05-23T07:54:31.564Z,56.37
2023-05-23T07:56:59.371Z,56.10
2023-05-23T07:59:27.206Z,55.48
2023-05-23T08:01:55.020Z,55.98
2023-05-23T08:04:24.251Z,55.81
2023-05-23T08:07:00.792Z,55.86
2023-05-23T08:09:32.562Z,54.95
2023-05-23T08:12:00.375Z,54.62
2023-05-23T08:14:42.403Z,54.92
2023-05-23T08:17:16.746Z,55.09
2023-05-23T08:19:46.150Z,54.90
2023-05-23T08:22:13.981Z,54.86
2023-05-23T08:24:41.746Z,54.37
2023-05-23T08:27:09.590Z,54.52
2023-05-23T08:29:37.446Z,54.80
2023-05-23T08:32:05.694Z,54.90
2023-05-23T08:34:33.588Z,53.90
2023-05-23T08:37:02.722Z,54.16
2023-05-23T08:39:30.529Z,54.62
2023-05-23T08:41:58.353Z,54.80
2023-05-23T08:44:26.202Z,54.69
2023-05-23T08:46:55.008Z,54.94
2023-05-23T08:49:24.066Z,54.82
2023-05-23T08:51:56.733Z,54.75
2023-05-23T08:54:27.132Z,54.55
2023-05-23T08:56:54.903Z,54.53
2023-05-23T08:59:23.658Z,54.99
2023-05-23T09:01:53.235Z,54.76
2023-05-23T09:04:21.237Z,55.13
2023-05-23T09:06:49.079Z,55.10
2023-05-23T09:09:17.392Z,55.21
2023-05-23T09:11:47.572Z,55.07
2023-05-23T09:14:18.060Z,55.17
2023-05-23T09:16:49.277Z,55.39
2023-05-23T09:19:17.106Z,55.33
2023-05-23T09:21:45.378Z,55.11
2023-05-23T09:24:13.211Z,55.17
2023-05-23T09:26:41.045Z,55.49
2023-05-23T09:29:10.134Z,55.74
2023-05-23T09:31:37.941Z,55.65
2023-05-23T09:34:06.953Z,55.56
2023-05-23T09:36:36.485Z,55.61
2023-05-23T09:39:06.399Z,55.58
2023-05-23T09:41:35.580Z,55.60
2023-05-23T09:44:07.216Z,55.66
2023-05-23T09:46:38.048Z,55.71
2023-05-23T09:49:17.348Z,55.85
2023-05-23T09:51:45.655Z,55.46
2023-05-23T09:54:13.710Z,55.38
2023-05-23T09:56:43.717Z,55.07
2023-05-23T09:59:14.627Z,54.22
2023-05-23T10:01:48.896Z,54.11
2023-05-23T10:04:21.918Z,53.81
2023-05-23T10:06:53.280Z,53.88
2023-05-23T10:09:24.262Z,53.68
2023-05-23T10:12:31.541Z,53.81
2023-05-23T10:15:04.626Z,53.53
2023-05-23T10:17:41.050Z,53.33
2023-05-23T10:20:12.655Z,53.44
2023-05-23T10:22:41.749Z,53.45
2023-05-23T10:25:10.922Z,52.17
2023-05-23T10:27:39.385Z,52.37
2023-05-23T10:30:08.534Z,52.38
2023-05-23T10:32:40.548Z,52.29
2023-05-23T10:35:16.722Z,52.04
2023-05-23T10:37:51.090Z,51.83
2023-05-23T10:40:25.648Z,52.17
2023-05-23T10:43:01.306Z,51.82
2023-05-23T10:45:29.521Z,52.17
2023-05-23T10:48:01.515Z,51.77
2023-05-23T10:50:34.011Z,51.68
2023-05-23T10:53:03.191Z,51.74
2023-05-23T10:55:33.674Z,51.51
2023-05-23T10:58:11.879Z,51.20
2023-05-23T11:00:40.002Z,50.81
2023-05-23T11:03:11.618Z,50.63
2023-05-23T11:05:49.196Z,50.55
2023-05-23T11:08:17.886Z,50.35
2023-05-23T11:11:01.158Z,50.30
2023-05-23T11:13:56.297Z,50.15
2023-05-23T11:16:28.960Z,50.13
2023-05-23T11:19:28.041Z,49.75
2023-05-23T11:22:01.154Z,49.77
2023-05-23T11:24:52.248Z,49.75
2023-05-23T11:27:27.468Z,49.25
2023-05-23T11:30:00.335Z,48.90
2023-05-23T11:32:30.754Z,48.95
2023-05-23T11:35:02.499Z,48.58
2023-05-23T11:37:31.015Z,48.75
2023-05-23T11:39:59.283Z,48.81
2023-05-23T11:42:27.152Z,48.58
2023-05-23T11:44:55.338Z,47.22
2023-05-23T11:47:23.156Z,48.03
2023-05-23T11:49:50.923Z,48.18
2023-05-23T11:52:20.089Z,48.03
2023-05-23T11:54:47.889Z,47.67
2023-05-23T11:57:15.656Z,47.87
2023-05-23T11:59:43.672Z,47.76
2023-05-23T12:02:11.586Z,48.07
2023-05-23T12:04:39.585Z,47.86
2023-05-23T12:07:08.387Z,47.66
2023-05-23T12:09:44.522Z,47.59
2023-05-23T12:12:13.641Z,47.61
2023-05-23T12:14:44.837Z,47.78
2023-05-23T12:17:13.782Z,47.54
2023-05-23T12:19:46.691Z,47.07
2023-05-23T12:22:14.477Z,46.98
2023-05-23T12:24:48.150Z,46.51
2023-05-23T12:27:18.590Z,45.97
2023-05-23T12:29:52.592Z,46.07
2023-05-23T12:32:20.506Z,46.22
2023-05-23T12:34:50.329Z,46.47
2023-05-23T12:37:20.304Z,46.46
2023-05-23T12:39:49.733Z,46.34
2023-05-23T12:42:17.565Z,45.99
2023-05-23T12:44:46.178Z,46.07
2023-05-23T12:47:15.083Z,46.36
2023-05-23T12:49:44.809Z,46.18
2023-05-23T12:52:12.678Z,45.77
2023-05-23T12:54:40.556Z,45.86
2023-05-23T12:57:09.832Z,45.97
2023-05-23T12:59:37.558Z,45.65
2023-05-23T13:02:05.419Z,45.73
2023-05-23T13:04:33.262Z,45.41
2023-05-23T13:07:01.133Z,45.47
2023-05-23T13:09:28.862Z,45.58
2023-05-23T13:11:56.832Z,45.47
2023-05-23T13:14:25.980Z,45.53
2023-05-23T13:16:53.813Z,45.09
2023-05-23T13:19:21.676Z,44.88
2023-05-23T13:21:50.086Z,44.59
2023-05-23T13:24:18.075Z,44.29
2023-05-23T13:26:45.901Z,44.66
2023-05-23T13:29:13.831Z,44.44
2023-05-23T13:31:43.043Z,44.41
2023-05-23T13:34:11.002Z,44.67
2023-05-23T13:36:38.826Z,44.46
2023-05-23T13:39:07.125Z,44.48
2023-05-23T13:41:34.928Z,44.24
2023-05-23T13:44:02.710Z,43.79
2023-05-23T13:46:30.820Z,43.73
2023-05-23T13:49:00.041Z,43.65
2023-05-23T13:51:27.852Z,43.92
2023-05-23T13:53:55.694Z,43.50
2023-05-23T13:56:24.402Z,43.65
2023-05-23T13:58:52.185Z,43.44
2023-05-23T14:01:20.024Z,43.57
2023-05-23T14:03:47.852Z,43.84
2023-05-23T14:06:17.023Z,43.61
2023-05-23T14:08:44.810Z,43.78
2023-05-23T14:11:12.561Z,44.01
2023-05-23T14:13:40.376Z,44.17
2023-05-23T14:16:08.258Z,43.89
2023-05-23T14:18:36.026Z,43.84
2023-05-23T14:21:03.820Z,44.22
2023-05-23T14:23:34.068Z,43.94
2023-05-23T14:26:01.899Z,43.38
2023-05-23T14:28:29.709Z,43.38
2023-05-23T14:30:59.083Z,43.80
2023-05-23T14:33:27.107Z,44.21
2023-05-23T14:35:54.922Z,43.90
2023-05-23T14:38:22.661Z,44.06
2023-05-23T14:40:51.806Z,43.65
2023-05-23T14:43:19.601Z,43.72
2023-05-23T14:45:47.447Z,43.34
2023-05-23T14:48:15.489Z,43.00
2023-05-23T14:50:43.459Z,42.98
2023-05-23T14:53:11.232Z,42.82
2023-05-23T14:55:39.119Z,42.41
2023-05-23T14:58:08.367Z,43.08
2023-05-23T15:00:36.073Z,42.47
2023-05-23T15:03:04.789Z,42.04
2023-05-23T15:05:32.795Z,42.54
2023-05-23T15:08:00.562Z,42.07
2023-05-23T15:10:28.307Z,41.71
2023-05-23T15:12:56.213Z,41.96
2023-05-23T15:15:27.085Z,41.75
2023-05-23T15:17:54.896Z,41.45
2023-05-23T15:20:22.702Z,41.44
2023-05-23T15:22:50.429Z,41.83
2023-05-23T15:25:27.002Z,41.44
2023-05-23T15:28:01.862Z,41.52
2023-05-23T15:30:31.130Z,42.26
2023-05-23T15:33:01.355Z,42.04
2023-05-23T15:35:29.640Z,43.20
2023-05-23T15:37:57.463Z,42.90
2023-05-23T15:40:25.188Z,42.72
2023-05-23T15:42:52.986Z,42.94
2023-05-23T15:45:20.854Z,42.52
2023-05-23T15:47:50.042Z,42.33
2023-05-23T15:50:18.865Z,42.33
2023-05-23T15:52:46.646Z,42.61
2023-05-23T15:55:14.449Z,42.26
2023-05-23T15:57:42.189Z,41.96
2023-05-23T16:00:11.049Z,42.16
2023-05-23T16:02:39.074Z,42.20
2023-05-23T16:05:09.124Z,42.53
2023-05-23T16:07:36.924Z,41.84
2023-05-23T16:10:05.082Z,40.92
2023-05-23T16:12:32.830Z,41.04
2023-05-23T16:15:02.502Z,40.99
2023-05-23T16:17:30.286Z,41.05
2023-05-23T16:19:58.071Z,41.27
2023-05-23T16:22:27.187Z,41.55
2023-05-23T16:24:55.613Z,41.64
2023-05-23T16:27:24.228Z,41.78
2023-05-23T16:29:51.997Z,41.73
2023-05-23T16:32:19.754Z,41.41
2023-05-23T16:34:52.839Z,41.36
2023-05-23T16:37:21.971Z,40.86
2023-05-23T16:39:51.124Z,40.94
2023-05-23T16:42:18.967Z,40.59
2023-05-23T16:44:46.835Z,40.49
2023-05-23T16:47:14.636Z,40.30
2023-05-23T16:49:42.452Z,40.32
2023-05-23T16:52:10.245Z,40.07
2023-05-23T16:54:38.058Z,40.34
2023-05-23T16:57:07.722Z,40.54
2023-05-23T16:59:35.564Z,40.72
2023-05-23T17:02:03.486Z,40.44
2023-05-23T17:04:31.312Z,39.91
2023-05-23T17:06:59.037Z,40.21
2023-05-23T17:09:26.789Z,40.38
2023-05-23T17:11:54.658Z,39.99
2023-05-23T17:14:23.787Z,40.33
2023-05-23T17:16:51.566Z,40.24
2023-05-23T17:19:19.378Z,40.24
2023-05-23T17:21:47.205Z,40.40
2023-05-23T17:24:15.065Z,40.77
2023-05-23T17:26:42.883Z,40.86
2023-05-23T17:29:10.847Z,40.73
2023-05-23T17:31:40.096Z,40.68
2023-05-23T17:34:07.952Z,40.46
2023-05-23T17:36:36.033Z,40.51
2023-05-23T17:39:03.855Z,40.32
2023-05-23T17:41:31.809Z,40.32
2023-05-23T17:43:59.614Z,40.15
2023-05-23T17:46:27.411Z,40.09
2023-05-23T17:48:56.590Z,40.35
2023-05-23T17:51:24.559Z,40.27
2023-05-23T17:53:53.805Z,40.52
2023-05-23T17:56:23.280Z,40.58
2023-05-23T17:58:51.369Z,39.95
2023-05-23T18:01:19.697Z,39.97
2023-05-23T18:03:48.956Z,39.55
2023-05-23T18:06:18.329Z,38.56
2023-05-23T18:08:46.067Z,37.98
2023-05-23T18:11:14.114Z,37.80
2023-05-23T18:13:41.846Z,38.15
2023-05-23T18:16:09.631Z,38.69
2023-05-23T18:18:37.346Z,38.34
2023-05-23T18:21:06.188Z,38.34
2023-05-23T18:23:35.584Z,38.31
2023-05-23T18:26:03.644Z,38.36
2023-05-23T18:28:31.475Z,38.88
2023-05-23T18:30:59.231Z,38.88
2023-05-23T18:33:27.699Z,38.72
2023-05-23T18:35:55.648Z,38.85
2023-05-23T18:38:23.400Z,38.72
2023-05-23T18:40:52.738Z,39.22
2023-05-23T18:43:21.049Z,38.98
2023-05-23T18:45:48.801Z,39.48
2023-05-23T18:48:16.727Z,39.33
2023-05-23T18:50:44.683Z,39.42
2023-05-23T18:53:12.634Z,39.59
2023-05-23T18:55:40.365Z,39.69
2023-05-23T18:58:09.463Z,39.61
2023-05-23T19:00:37.229Z,39.59
2023-05-23T19:03:05.457Z,39.67
2023-05-23T19:05:33.348Z,39.51
2023-05-23T19:08:01.120Z,39.55
2023-05-23T19:10:28.904Z,39.67
2023-05-23T19:12:56.678Z,39.94
2023-05-23T19:15:25.845Z,40.04
2023-05-23T19:17:53.666Z,40.26
2023-05-23T19:20:22.046Z,40.23
2023-05-23T19:22:51.416Z,40.34
2023-05-23T19:25:20.765Z,40.51
2023-05-23T19:27:48.552Z,40.57
2023-05-23T19:30:16.715Z,40.79
2023-05-23T19:32:45.923Z,40.61
2023-05-23T19:35:16.536Z,40.81
2023-05-23T19:37:45.179Z,40.66
2023-05-23T19:40:13.729Z,40.85
2023-05-23T19:42:41.515Z,40.81
2023-05-23T19:45:09.972Z,41.18
2023-05-23T19:47:37.933Z,41.11
2023-05-23T19:50:08.258Z,41.17
2023-05-23T19:52:36.034Z,41.50
2023-05-23T19:55:04.142Z,41.40
2023-05-23T19:57:32.192Z,41.20
2023-05-23T20:00:00.014Z,41.29
2023-05-23T20:02:27.876Z,41.42
2023-05-23T20:04:55.796Z,41.43
2023-05-23T20:07:24.954Z,41.39
2023-05-23T20:09:52.761Z,41.68
2023-05-23T20:12:20.510Z,41.70
2023-05-23T20:14:48.315Z,41.67
2023-05-23T20:17:16.065Z,41.77
2023-05-23T20:19:43.887Z,41.67
2023-05-23T20:22:11.619Z,41.78
2023-05-23T20:24:40.800Z,41.96
2023-05-23T20:27:08.719Z,41.67
2023-05-23T20:29:36.532Z,41.76
2023-05-23T20:32:04.342Z,41.87
2023-05-23T20:34:32.461Z,41.89
2023-05-23T20:37:01.501Z,41.91
2023-05-23T20:39:29.649Z,42.07
2023-05-23T20:41:59.702Z,41.85
2023-05-23T20:44:27.510Z,42.06
2023-05-23T20:46:57.026Z,42.29
2023-05-23T20:49:24.930Z,42.33
2023-05-23T20:51:52.785Z,42.22
2023-05-23T20:54:21.035Z,42.21
2023-05-23T20:56:48.796Z,42.33
2023-05-23T20:59:18.006Z,42.52
2023-05-23T21:01:45.864Z,42.51
2023-05-23T21:04:13.978Z,42.53
2023-05-23T21:06:41.720Z,42.51
2023-05-23T21:09:09.860Z,42.86
2023-05-23T21:11:37.624Z,42.69
2023-05-23T21:14:05.424Z,42.67
2023-05-23T21:16:34.603Z,42.73
2023-05-23T21:19:02.397Z,42.71
2023-05-23T21:21:30.219Z,42.90
2023-05-23T21:23:57.993Z,42.91
2023-05-23T21:26:25.713Z,43.05
2023-05-23T21:28:53.460Z,43.11
2023-05-23T21:31:33.158Z,43.09
2023-05-23T21:34:22.425Z,43.17
2023-05-23T21:36:51.926Z,43.23
2023-05-23T21:39:19.895Z,43.42
2023-05-23T21:41:47.725Z,43.40
2023-05-23T21:44:17.610Z,43.42
2023-05-23T21:46:45.786Z,43.45
2023-05-23T21:49:15.156Z,43.34
2023-05-23T21:51:44.088Z,43.49
2023-05-23T21:54:11.877Z,43.44
2023-05-23T21:56:39.594Z,43.73
2023-05-23T21:59:07.708Z,43.68
2023-05-23T22:01:36.036Z,43.93
2023-05-23T22:04:03.870Z,43.79
2023-05-23T22:06:33.540Z,44.00
2023-05-23T22:09:01.692Z,43.88
2023-05-23T22:11:33.991Z,43.98
2023-05-23T22:14:02.266Z,44.04
2023-05-23T22:16:32.838Z,44.26
2023-05-23T22:19:02.114Z,43.92
2023-05-23T22:21:30.154Z,44.23
2023-05-23T22:23:59.657Z,44.29
2023-05-23T22:26:28.120Z,44.06
2023-05-23T22:28:56.493Z,44.32
2023-05-23T22:31:24.948Z,44.26
2023-05-23T22:33:52.887Z,44.44
2023-05-23T22:36:21.984Z,44.51
2023-05-23T22:38:50.045Z,44.67
2023-05-23T22:41:19.411Z,44.48
2023-05-23T22:43:47.485Z,44.87
2023-05-23T22:46:15.364Z,44.69
2023-05-23T22:48:43.316Z,44.88
2023-05-23T22:51:14.843Z,44.67
2023-05-23T22:53:43.274Z,44.90
2023-05-23T22:56:11.074Z,44.96
2023-05-23T22:58:40.190Z,44.96
2023-05-23T23:01:08.018Z,45.17
2023-05-23T23:03:36.022Z,44.94
2023-05-23T23:06:06.168Z,44.89
2023-05-23T23:08:34.257Z,45.15
2023-05-23T23:11:02.064Z,45.15
2023-05-23T23:13:29.890Z,44.95
2023-05-23T23:15:59.669Z,45.25
2023-05-23T23:18:27.858Z,45.13
2023-05-23T23:20:55.593Z,45.29
2023-05-23T23:23:23.440Z,45.25
2023-05-23T23:25:52.193Z,45.26
2023-05-23T23:28:20.751Z,45.42
2023-05-23T23:30:48.675Z,45.60
2023-05-23T23:33:17.835Z,45.42
2023-05-23T23:35:48.592Z,45.40
2023-05-23T23:38:16.611Z,45.40
2023-05-23T23:40:45.686Z,45.58
2023-05-23T23:43:13.934Z,45.71
2023-05-23T23:45:41.731Z,45.39
2023-05-23T23:48:09.614Z,45.69
2023-05-23T23:50:38.869Z,45.57
2023-05-23T23:53:06.581Z,45.80
2023-05-23T23:55:34.433Z,45.67
2023-05-23T23:58:02.174Z,45.64
